createdAt,value
2022-11-02T00:02:15.083Z,77.63
2022-11-02T00:08:07.249Z,80.25
2022-11-02T00:10:41.208Z,69.65
2022-11-02T00:13:40.686Z,73.40
2022-11-02T00:16:31.109Z,69.10
2022-11-02T00:22:30.759Z,63.53
2022-11-02T00:25:16.446Z,63.47
2022-11-02T00:27:53.284Z,65.75
2022-11-02T00:30:42.045Z,66.50
2022-11-02T00:36:44.313Z,57.45
2022-11-02T00:39:23.873Z,66.05
2022-11-02T00:42:00.722Z,66.85
2022-11-02T00:44:55.272Z,69.15
2022-11-02T00:47:42.205Z,72.68
2022-11-02T00:50:15.736Z,74.05
2022-11-02T00:53:10.501Z,70.28
2022-11-02T00:55:45.440Z,74.88
2022-11-02T00:58:52.221Z,75.38
2022-11-02T01:01:42.203Z,75.50
2022-11-02T01:04:23.771Z,75.78
2022-11-02T01:07:40.345Z,77.70
2022-11-02T01:10:13.370Z,84.18
2022-11-02T01:13:11.134Z,90.85
2022-11-02T01:15:43.462Z,93.50
2022-11-02T01:18:21.715Z,93.53
2022-11-02T01:21:48.622Z,91.10
2022-11-02T01:24:34.764Z,93.88
2022-11-02T01:27:15.693Z,106.13
2022-11-02T01:30:20.196Z,93.68
2022-11-02T01:32:54.520Z,90.15
2022-11-02T01:35:30.546Z,98.78
2022-11-02T01:38:12.219Z,93.28
2022-11-02T01:40:52.016Z,91.47
2022-11-02T01:43:42.644Z,99.38
2022-11-02T01:49:39.896Z,90.00
2022-11-02T01:52:49.311Z,88.80
2022-11-02T01:58:38.478Z,93.03
2022-11-02T02:01:21.105Z,91.18
2022-11-02T02:04:03.442Z,88.45
2022-11-02T02:06:52.143Z,90.70
2022-11-02T02:09:30.354Z,105.00
2022-11-02T02:15:18.148Z,107.82
2022-11-02T02:18:22.392Z,106.68
2022-11-02T02:21:33.209Z,114.72
2022-11-02T02:24:21.613Z,149.25
2022-11-02T02:27:32.621Z,144.20
2022-11-02T02:30:16.687Z,178.50
2022-11-02T02:36:37.695Z,192.82
2022-11-02T02:39:47.624Z,199.25
2022-11-02T02:42:57.994Z,229.25
2022-11-02T02:45:58.350Z,254.30
2022-11-02T02:49:11.075Z,238.05
2022-11-02T02:52:04.883Z,233.38
2022-11-02T02:55:16.047Z,220.07
2022-11-02T02:58:10.717Z,211.88
2022-11-02T03:01:19.422Z,240.35
2022-11-02T03:04:05.602Z,270.30
2022-11-02T03:07:08.169Z,264.15
2022-11-02T03:10:26.965Z,272.17
2022-11-02T03:17:38.181Z,361.05
2022-11-02T03:20:41.437Z,246.10
2022-11-02T03:23:37.480Z,252.23
2022-11-02T03:26:40.966Z,218.00
2022-11-02T03:33:32.438Z,213.07
2022-11-02T03:37:18.371Z,159.82
2022-11-02T03:40:00.656Z,165.93
2022-11-02T03:42:44.361Z,171.85
2022-11-02T03:45:20.625Z,173.10
2022-11-02T03:48:06.401Z,192.60
2022-11-02T03:51:14.211Z,187.98
2022-11-02T03:54:53.240Z,180.95
2022-11-02T03:58:10.907Z,200.45
2022-11-02T04:01:23.032Z,201.35
2022-11-02T04:04:06.974Z,197.25
2022-11-02T04:06:47.292Z,235.50
2022-11-02T04:09:34.455Z,209.27
2022-11-02T04:12:35.955Z,221.18
2022-11-02T04:15:18.920Z,263.50
2022-11-02T04:18:19.741Z,394.23
2022-11-02T04:21:30.313Z,223.27
2022-11-02T04:24:36.157Z,300.40
2022-11-02T04:27:21.325Z,236.30
2022-11-02T04:30:22.345Z,324.20
2022-11-02T04:33:42.071Z,305.60
2022-11-02T04:36:20.001Z,511.58
2022-11-02T04:39:08.215Z,395.25
2022-11-02T04:42:37.719Z,372.40
2022-11-02T04:45:24.846Z,203.73
2022-11-02T04:48:16.640Z,279.95
2022-11-02T04:50:52.498Z,369.95
2022-11-02T04:53:24.187Z,230.73
2022-11-02T04:56:02.510Z,196.98
2022-11-02T04:58:42.381Z,348.90
2022-11-02T05:01:27.640Z,370.40
2022-11-02T05:04:23.295Z,332.27
2022-11-02T05:07:21.028Z,273.30
2022-11-02T05:10:03.514Z,207.43
2022-11-02T05:13:06.035Z,422.60
2022-11-02T05:16:01.508Z,431.25
2022-11-02T05:18:32.274Z,263.13
2022-11-02T05:21:12.367Z,294.43
2022-11-02T05:23:53.003Z,271.27
2022-11-02T05:26:30.017Z,177.13
2022-11-02T05:29:04.450Z,219.27
2022-11-02T05:31:53.401Z,235.77
2022-11-02T05:34:30.495Z,238.73
2022-11-02T05:37:05.288Z,255.68
2022-11-02T05:39:49.367Z,245.65
2022-11-02T05:42:26.567Z,343.48
2022-11-02T05:45:09.862Z,372.95
2022-11-02T05:47:47.159Z,261.85
2022-11-02T05:50:24.992Z,274.33
2022-11-02T05:52:58.213Z,297.80
2022-11-02T05:55:38.422Z,261.40
2022-11-02T05:58:29.866Z,220.82
2022-11-02T06:01:04.382Z,190.20
2022-11-02T06:03:48.991Z,316.40
2022-11-02T06:06:27.434Z,297.40
2022-11-02T06:09:23.849Z,247.68
2022-11-02T06:12:00.692Z,195.55
2022-11-02T06:14:35.112Z,253.95
2022-11-02T06:17:07.646Z,122.95
2022-11-02T06:19:53.341Z,157.05
2022-11-02T06:23:10.227Z,147.15
2022-11-02T06:25:48.045Z,235.50
2022-11-02T06:28:25.497Z,191.68
2022-11-02T06:30:57.553Z,203.13
2022-11-02T06:33:31.414Z,155.63
2022-11-02T06:36:04.545Z,183.27
2022-11-02T06:38:38.683Z,118.38
2022-11-02T06:41:08.630Z,158.70
2022-11-02T06:43:48.001Z,170.00
2022-11-02T06:46:30.175Z,147.27
2022-11-02T06:49:06.566Z,66.90
2022-11-02T06:51:51.267Z,140.85
2022-11-02T06:54:47.695Z,118.20
2022-11-02T06:57:42.798Z,127.72
2022-11-02T07:00:25.535Z,98.18
2022-11-02T07:03:21.943Z,91.55
2022-11-02T07:05:59.768Z,143.35
2022-11-02T07:08:52.251Z,97.75
2022-11-02T07:12:26.545Z,173.52
2022-11-02T07:15:33.963Z,65.70
2022-11-02T07:18:11.402Z,133.52
2022-11-02T07:20:55.630Z,114.40
2022-11-02T07:23:31.761Z,303.40
2022-11-02T07:29:47.366Z,84.10
2022-11-02T07:32:45.100Z,107.55
2022-11-02T07:35:51.448Z,110.00
2022-11-02T07:39:09.474Z,57.53
2022-11-02T07:42:03.263Z,204.60
2022-11-02T07:49:21.225Z,119.65
2022-11-02T07:51:58.621Z,94.25
2022-11-02T07:54:53.710Z,239.05
2022-11-02T07:57:28.710Z,72.00
2022-11-02T08:00:59.697Z,147.70
2022-11-02T08:03:41.192Z,88.75
2022-11-02T08:06:11.627Z,150.77
2022-11-02T08:08:44.754Z,161.50
2022-11-02T08:14:11.140Z,118.93
2022-11-02T08:17:10.323Z,107.40
2022-11-02T08:24:25.421Z,126.85
2022-11-02T08:26:55.517Z,88.03
2022-11-02T08:32:47.270Z,76.03
2022-11-02T08:35:22.740Z,97.68
2022-11-02T08:38:12.391Z,68.32
2022-11-02T08:40:48.337Z,98.50
2022-11-02T08:43:19.828Z,94.50
2022-11-02T08:48:41.310Z,87.57
2022-11-02T08:51:12.354Z,92.72
2022-11-02T08:53:41.224Z,99.10
2022-11-02T08:56:08.792Z,97.53
2022-11-02T08:59:03.353Z,87.05
2022-11-02T09:01:45.004Z,80.88
2022-11-02T09:04:20.200Z,88.75
2022-11-02T09:06:55.106Z,91.72
2022-11-02T09:09:24.755Z,115.47
2022-11-02T09:11:59.927Z,85.47
2022-11-02T09:14:32.854Z,96.82
2022-11-02T09:17:02.143Z,79.32
2022-11-02T09:19:36.270Z,79.80
2022-11-02T09:24:34.446Z,71.80
2022-11-02T09:27:04.706Z,76.88
2022-11-02T09:29:42.541Z,104.38
2022-11-02T09:32:16.354Z,83.93
2022-11-02T09:34:45.552Z,85.13
2022-11-02T09:37:18.254Z,91.13
2022-11-02T09:39:56.516Z,100.10
2022-11-02T09:42:36.106Z,91.65
2022-11-02T09:45:14.261Z,80.07
2022-11-02T09:48:16.066Z,121.45
2022-11-02T09:50:51.945Z,109.93
2022-11-02T09:53:43.584Z,146.95
2022-11-02T09:56:26.071Z,96.25
2022-11-02T09:59:18.385Z,79.57
2022-11-02T10:02:08.058Z,75.43
2022-11-02T10:05:23.206Z,95.28
2022-11-02T10:08:26.408Z,82.78
2022-11-02T10:11:19.471Z,115.32
2022-11-02T10:13:59.370Z,89.20
2022-11-02T10:16:39.889Z,92.75
2022-11-02T10:19:15.840Z,63.28
2022-11-02T10:21:49.353Z,76.13
2022-11-02T10:24:47.200Z,107.03
2022-11-02T10:27:35.654Z,92.57
2022-11-02T10:30:16.022Z,101.18
2022-11-02T10:32:45.858Z,82.28
2022-11-02T10:35:37.249Z,104.72
2022-11-02T10:38:58.203Z,113.10
2022-11-02T10:41:36.408Z,71.88
2022-11-02T10:44:27.218Z,96.25
2022-11-02T10:47:18.242Z,104.53
2022-11-02T10:50:34.192Z,58.42
2022-11-02T10:53:27.505Z,142.77
2022-11-02T10:56:09.788Z,96.32
2022-11-02T10:58:42.131Z,69.00
2022-11-02T11:01:14.147Z,66.00
2022-11-02T11:04:04.774Z,66.00
2022-11-02T11:06:44.174Z,70.65
2022-11-02T11:09:22.194Z,79.38
2022-11-02T11:12:48.051Z,90.80
2022-11-02T11:21:10.273Z,65.97
2022-11-02T11:23:41.211Z,65.30
2022-11-02T11:26:36.672Z,67.28
2022-11-02T11:29:25.261Z,67.53
2022-11-02T11:31:55.128Z,64.05
2022-11-02T11:34:47.246Z,63.90
2022-11-02T11:37:33.628Z,63.38
2022-11-02T11:40:23.001Z,66.20
2022-11-02T11:43:02.415Z,76.95
2022-11-02T11:45:35.020Z,62.83
2022-11-02T11:48:27.168Z,65.45
2022-11-02T11:50:56.414Z,65.85
2022-11-02T11:53:29.289Z,81.15
2022-11-02T11:55:59.957Z,66.18
2022-11-02T11:58:32.109Z,68.03
2022-11-02T12:01:47.682Z,74.75
2022-11-02T12:04:27.722Z,70.60
2022-11-02T12:07:20.557Z,76.05
2022-11-02T12:10:01.466Z,71.75
2022-11-02T12:12:40.898Z,73.95
2022-11-02T12:15:26.866Z,84.72
2022-11-02T12:18:20.613Z,77.53
2022-11-02T12:21:21.833Z,76.32
2022-11-02T12:24:17.115Z,87.88
2022-11-02T12:27:09.008Z,79.05
2022-11-02T12:30:01.219Z,66.88
2022-11-02T12:32:45.233Z,64.97
2022-11-02T12:35:53.274Z,81.88
2022-11-02T12:38:38.186Z,66.82
2022-11-02T12:41:12.708Z,74.53
2022-11-02T12:43:46.936Z,66.07
2022-11-02T12:46:49.107Z,63.50
2022-11-02T12:49:36.069Z,63.90
2022-11-02T12:52:45.735Z,59.83
2022-11-02T12:55:21.569Z,58.00
2022-11-02T12:58:04.309Z,59.95
2022-11-02T13:00:37.688Z,56.67
2022-11-02T13:03:33.225Z,70.63
2022-11-02T13:06:06.682Z,70.40
2022-11-02T13:09:09.783Z,84.40
2022-11-02T13:11:47.667Z,60.63
2022-11-02T13:14:22.397Z,60.22
2022-11-02T13:17:14.616Z,67.95
2022-11-02T13:19:50.633Z,64.13
2022-11-02T13:22:23.194Z,58.40
2022-11-02T13:24:57.634Z,62.63
2022-11-02T13:27:38.578Z,63.47
2022-11-02T13:30:19.283Z,62.92
2022-11-02T13:33:04.191Z,62.20
2022-11-02T13:35:45.716Z,61.15
2022-11-02T13:38:20.772Z,66.60
2022-11-02T13:41:04.570Z,67.50
2022-11-02T13:44:18.464Z,62.38
2022-11-02T13:46:58.884Z,66.82
2022-11-02T13:49:39.195Z,80.63
2022-11-02T13:52:15.503Z,87.53
2022-11-02T13:55:01.264Z,104.18
2022-11-02T13:57:33.576Z,136.05
2022-11-02T14:00:26.773Z,138.35
2022-11-02T14:03:04.209Z,110.43
2022-11-02T14:06:01.437Z,90.60
2022-11-02T14:08:55.871Z,80.28
2022-11-02T14:11:28.221Z,88.47
2022-11-02T14:13:55.860Z,76.07
2022-11-02T14:16:57.880Z,76.43
2022-11-02T14:19:34.516Z,78.97
2022-11-02T14:22:26.821Z,69.13
2022-11-02T14:25:18.375Z,57.70
2022-11-02T14:27:48.902Z,64.97
2022-11-02T14:30:48.565Z,58.25
2022-11-02T14:34:05.363Z,54.80
2022-11-02T14:37:22.016Z,39.83
2022-11-02T14:40:32.066Z,43.92
2022-11-02T14:43:49.499Z,37.42
2022-11-02T14:46:35.128Z,40.22
2022-11-02T14:49:18.644Z,37.72
2022-11-02T14:51:57.496Z,34.28
2022-11-02T14:54:33.409Z,34.22
2022-11-02T14:57:06.611Z,31.13
2022-11-02T14:59:45.808Z,30.65
2022-11-02T15:02:42.994Z,31.90
2022-11-02T15:05:30.651Z,33.67
2022-11-02T15:08:25.976Z,32.55
2022-11-02T15:10:55.702Z,29.55
2022-11-02T15:13:37.182Z,28.02
2022-11-02T15:16:11.906Z,31.20
2022-11-02T15:18:40.801Z,35.42
2022-11-02T15:21:15.286Z,33.13
2022-11-02T15:23:48.192Z,33.63
2022-11-02T15:26:55.660Z,29.87
2022-11-02T15:29:45.550Z,28.38
2022-11-02T15:32:26.894Z,31.08
2022-11-02T15:35:03.560Z,32.40
2022-11-02T15:37:50.336Z,34.42
2022-11-02T15:40:37.679Z,36.03
2022-11-02T15:43:37.258Z,34.83
2022-11-02T15:46:29.396Z,36.88
2022-11-02T15:49:29.167Z,31.17
2022-11-02T15:52:20.748Z,32.80
2022-11-02T15:55:10.876Z,31.77
2022-11-02T15:58:16.200Z,33.83
2022-11-02T16:01:36.184Z,34.30
2022-11-02T16:04:20.109Z,39.72
2022-11-02T16:06:49.758Z,43.65
2022-11-02T16:12:37.925Z,45.50
2022-11-02T16:15:20.876Z,41.70
2022-11-02T16:17:53.484Z,38.78
2022-11-02T16:20:35.346Z,39.17
2022-11-02T16:23:13.614Z,33.95
2022-11-02T16:25:48.249Z,40.05
2022-11-02T16:28:23.288Z,43.10
2022-11-02T16:31:18.527Z,51.08
2022-11-02T16:34:22.009Z,36.80
2022-11-02T16:36:51.270Z,35.25
2022-11-02T16:39:26.865Z,34.83
2022-11-02T16:42:00.240Z,41.85
2022-11-02T16:44:35.069Z,40.47
2022-11-02T16:47:08.242Z,45.95
2022-11-02T16:50:26.118Z,45.85
2022-11-02T16:53:12.453Z,43.55
2022-11-02T17:00:36.587Z,43.88
2022-11-02T17:06:27.681Z,48.05
2022-11-02T17:09:11.397Z,41.25
2022-11-02T17:11:46.947Z,39.17
2022-11-02T17:14:33.226Z,42.50
2022-11-02T17:17:42.835Z,48.83
2022-11-02T17:21:03.047Z,40.72
2022-11-02T17:24:35.676Z,44.83
2022-11-02T17:28:00.558Z,44.53
2022-11-02T17:31:01.903Z,43.53
2022-11-02T17:33:39.712Z,41.65
2022-11-02T17:36:52.492Z,40.05
2022-11-02T17:39:29.854Z,41.85
2022-11-02T17:46:02.003Z,45.97
2022-11-02T17:48:47.423Z,39.70
2022-11-02T17:51:35.468Z,43.58
2022-11-02T17:54:37.396Z,41.58
2022-11-02T17:57:29.186Z,48.83
2022-11-02T18:00:21.068Z,41.45
2022-11-02T18:03:29.906Z,41.33
2022-11-02T18:09:33.487Z,41.85
2022-11-02T18:12:15.112Z,42.47
2022-11-02T18:15:09.864Z,43.30
2022-11-02T18:18:07.552Z,43.25
2022-11-02T18:20:50.032Z,46.00
2022-11-02T18:24:01.331Z,46.60
2022-11-02T18:26:52.098Z,49.13
2022-11-02T18:32:47.786Z,41.15
2022-11-02T18:38:18.786Z,37.00
2022-11-02T18:41:29.941Z,35.17
2022-11-02T18:44:24.000Z,36.97
2022-11-02T18:47:56.172Z,41.63
2022-11-02T18:53:50.834Z,37.50
2022-11-02T18:56:41.762Z,39.00
2022-11-02T19:03:16.837Z,36.35
2022-11-02T19:06:40.421Z,37.67
2022-11-02T19:12:35.339Z,39.05
2022-11-02T19:15:19.577Z,43.63
2022-11-02T19:18:27.466Z,49.60
2022-11-02T19:22:21.898Z,45.50
2022-11-02T19:28:54.688Z,57.45
2022-11-02T19:31:57.209Z,63.90
2022-11-02T19:34:50.844Z,70.50
2022-11-02T19:38:14.607Z,72.88
2022-11-02T19:41:27.590Z,70.43
2022-11-02T19:44:03.974Z,77.82
2022-11-02T19:47:16.020Z,77.45
2022-11-02T19:50:10.293Z,81.43
2022-11-02T19:53:15.199Z,77.40
2022-11-02T19:56:38.763Z,90.82
2022-11-02T19:59:50.084Z,72.18
2022-11-02T20:07:34.370Z,73.53
2022-11-02T20:11:34.367Z,59.10
2022-11-02T20:18:19.000Z,59.10
2022-11-02T20:25:46.674Z,59.85
2022-11-02T20:29:20.074Z,71.43
2022-11-02T20:32:47.520Z,64.30
2022-11-02T20:35:44.981Z,68.25
2022-11-02T20:39:41.860Z,70.35
2022-11-02T20:44:33.605Z,66.40
2022-11-02T20:51:57.834Z,64.97
2022-11-02T20:55:46.692Z,66.75
2022-11-02T20:59:02.967Z,64.75
2022-11-02T21:01:51.175Z,69.47
2022-11-02T21:04:54.405Z,56.92
2022-11-02T21:08:12.966Z,53.13
2022-11-02T21:10:57.078Z,52.97
2022-11-02T21:16:50.653Z,57.92
2022-11-02T21:19:22.565Z,58.75
2022-11-02T21:22:29.289Z,61.35
2022-11-02T21:25:41.561Z,62.13
2022-11-02T21:28:41.547Z,70.90
2022-11-02T21:31:21.989Z,66.38
2022-11-02T21:34:00.936Z,81.13
2022-11-02T21:36:32.556Z,72.90
2022-11-02T21:39:36.905Z,56.75
2022-11-02T21:42:12.876Z,58.95
2022-11-02T21:44:50.976Z,53.25
2022-11-02T21:47:34.213Z,55.28
2022-11-02T21:54:41.268Z,54.65
2022-11-02T21:57:21.174Z,53.88
2022-11-02T22:00:22.603Z,54.78
2022-11-02T22:03:25.436Z,58.35
2022-11-02T22:06:10.369Z,59.53
2022-11-02T22:09:30.710Z,58.28
2022-11-02T22:19:50.569Z,64.45
2022-11-02T22:22:22.472Z,59.47
2022-11-02T22:25:46.906Z,58.15
2022-11-02T22:31:43.549Z,61.08
2022-11-02T22:34:24.386Z,55.28
2022-11-02T22:40:26.895Z,57.50
2022-11-02T22:43:54.467Z,59.13
2022-11-02T22:46:29.545Z,58.72
2022-11-02T22:49:19.270Z,80.50
2022-11-02T22:52:17.450Z,57.30
2022-11-02T22:55:14.802Z,58.40
2022-11-02T22:57:48.251Z,60.38
2022-11-02T23:00:52.474Z,64.10
2022-11-02T23:03:30.039Z,64.65
2022-11-02T23:10:44.683Z,64.57
2022-11-02T23:18:18.247Z,65.65
2022-11-02T23:20:56.386Z,78.05
2022-11-02T23:24:03.834Z,64.70
2022-11-02T23:27:32.279Z,78.60
2022-11-02T23:31:03.728Z,60.63
2022-11-02T23:33:50.942Z,69.30
2022-11-02T23:36:22.829Z,99.80
2022-11-02T23:39:12.600Z,109.20
2022-11-02T23:41:44.661Z,86.80
2022-11-02T23:44:19.400Z,93.78
2022-11-02T23:46:59.694Z,80.70
2022-11-02T23:49:55.060Z,89.05
2022-11-02T23:52:46.001Z,88.05
2022-11-02T23:55:40.494Z,100.55
2022-11-02T23:58:18.896Z,102.32
